createdAt,value
2018-04-28T00:01:36.668Z,6.73
2018-04-28T00:04:04.151Z,6.07
2018-04-28T00:06:31.612Z,6.10
2018-04-28T00:08:59.104Z,4.20
2018-04-28T00:11:26.562Z,4.93
2018-04-28T00:13:54.047Z,3.37
2018-04-28T00:16:23.293Z,4.97
2018-04-28T00:19:02.578Z,4.30
2018-04-28T00:24:49.171Z,5.70
2018-04-28T00:27:20.128Z,3.63
2018-04-28T00:29:47.608Z,4.17
2018-04-28T00:32:15.070Z,6.17
2018-04-28T00:34:50.297Z,4.83
2018-04-28T00:37:18.497Z,5.97
2018-04-28T00:42:48.770Z,6.57
2018-04-28T00:45:26.981Z,6.17
2018-04-28T00:47:54.982Z,5.00
2018-04-28T00:50:25.145Z,3.87
2018-04-28T00:52:53.570Z,7.17
2018-04-28T00:55:36.647Z,6.47
2018-04-28T00:58:05.943Z,5.40
2018-04-28T01:00:34.776Z,5.33
2018-04-28T01:03:04.033Z,5.80
2018-04-28T01:05:32.361Z,5.03
2018-04-28T01:07:59.823Z,2.93
2018-04-28T01:10:29.262Z,3.47
2018-04-28T01:12:57.647Z,6.87
2018-04-28T01:15:30.430Z,3.20
2018-04-28T01:18:05.374Z,5.50
2018-04-28T01:20:44.621Z,8.50
2018-04-28T01:23:12.081Z,5.97
2018-04-28T01:25:40.328Z,5.87
2018-04-28T01:28:11.421Z,3.80
2018-04-28T01:30:38.878Z,4.50
2018-04-28T01:33:11.930Z,5.50
2018-04-28T01:38:37.913Z,4.70
2018-04-28T01:41:17.342Z,6.10
2018-04-28T01:43:54.311Z,6.50
2018-04-28T01:46:21.812Z,5.53
2018-04-28T01:48:51.812Z,3.37
2018-04-28T01:54:32.658Z,3.73
2018-04-28T02:00:03.824Z,5.67
2018-04-28T02:02:42.053Z,5.83
2018-04-28T02:05:13.922Z,6.53
2018-04-28T02:07:42.199Z,6.13
2018-04-28T02:10:09.655Z,7.47
2018-04-28T02:12:46.434Z,5.20
2018-04-28T02:15:14.703Z,6.27
2018-04-28T02:20:39.585Z,5.80
2018-04-28T02:23:10.970Z,8.53
2018-04-28T02:25:40.225Z,5.53
2018-04-28T02:28:13.678Z,6.37
2018-04-28T02:30:58.731Z,8.67
2018-04-28T02:33:26.226Z,7.83
2018-04-28T02:36:09.353Z,8.97
2018-04-28T02:38:38.341Z,6.27
2018-04-28T02:41:12.690Z,4.83
2018-04-28T02:43:53.905Z,8.43
2018-04-28T02:46:36.241Z,7.03
2018-04-28T02:52:13.254Z,8.13
2018-04-28T02:57:51.895Z,9.93
2018-04-28T03:03:21.042Z,7.70
2018-04-28T03:05:48.527Z,8.67
2018-04-28T03:08:18.782Z,9.53
2018-04-28T03:10:50.697Z,11.80
2018-04-28T03:16:22.093Z,9.80
2018-04-28T03:18:49.557Z,10.37
2018-04-28T03:21:18.779Z,9.77
2018-04-28T03:23:52.877Z,6.97
2018-04-28T03:26:22.781Z,9.20
2018-04-28T03:28:50.274Z,9.87
2018-04-28T03:31:23.630Z,8.40
2018-04-28T03:37:14.426Z,10.40
2018-04-28T03:40:01.184Z,12.80
2018-04-28T03:42:34.486Z,7.80
2018-04-28T03:45:04.842Z,11.27
2018-04-28T03:47:36.119Z,12.63
2018-04-28T03:50:03.578Z,9.50
2018-04-28T03:52:47.722Z,9.17
2018-04-28T03:55:15.193Z,7.20
2018-04-28T03:57:54.400Z,11.73
2018-04-28T04:03:23.331Z,10.70
2018-04-28T04:08:54.578Z,7.57
2018-04-28T04:14:38.461Z,13.40
2018-04-28T04:17:13.303Z,11.83
2018-04-28T04:19:52.604Z,12.97
2018-04-28T04:22:24.625Z,9.00
2018-04-28T04:24:52.745Z,10.13
2018-04-28T04:27:41.802Z,9.83
2018-04-28T04:30:21.138Z,9.77
2018-04-28T04:32:52.757Z,7.40
2018-04-28T04:35:25.958Z,9.17
2018-04-28T04:37:54.090Z,11.37
2018-04-28T04:49:57.110Z,11.90
2018-04-28T04:52:39.493Z,10.10
2018-04-28T04:58:29.306Z,9.87
2018-04-28T05:04:17.006Z,10.03
2018-04-28T05:07:06.107Z,12.77
2018-04-28T05:12:48.122Z,10.27
2018-04-28T05:18:27.512Z,9.27
2018-04-28T05:24:23.971Z,7.97
2018-04-28T05:26:54.074Z,12.23
2018-04-28T05:29:32.994Z,12.27
2018-04-28T05:35:10.526Z,9.47
2018-04-28T05:37:53.553Z,8.90
2018-04-28T05:40:21.821Z,9.60
2018-04-28T05:43:01.022Z,11.57
2018-04-28T05:45:40.149Z,11.23
2018-04-28T05:51:13.471Z,7.43
2018-04-28T05:57:14.984Z,8.13
2018-04-28T05:59:48.393Z,10.57
2018-04-28T06:05:38.217Z,15.47
2018-04-28T06:11:41.049Z,7.47
2018-04-28T06:14:29.233Z,14.33
2018-04-28T06:17:04.132Z,10.00
2018-04-28T06:22:40.381Z,9.07
2018-04-28T06:25:08.674Z,10.07
2018-04-28T06:27:36.154Z,10.93
2018-04-28T06:30:03.605Z,8.60
2018-04-28T06:32:31.091Z,12.50
2018-04-28T06:34:58.565Z,9.17
2018-04-28T06:37:26.017Z,7.67
2018-04-28T06:39:53.490Z,8.07
2018-04-28T06:42:21.219Z,10.70
2018-04-28T06:44:48.701Z,9.40
2018-04-28T06:47:16.164Z,9.20
2018-04-28T06:49:43.648Z,7.90
2018-04-28T06:52:11.107Z,9.67
2018-04-28T06:54:38.590Z,7.83
2018-04-28T06:57:06.054Z,12.07
2018-04-28T06:59:33.532Z,9.57
2018-04-28T07:02:01.017Z,10.37
2018-04-28T07:04:28.499Z,7.10
2018-04-28T07:06:55.958Z,8.73
2018-04-28T07:09:23.437Z,5.77
2018-04-28T07:11:50.973Z,7.50
2018-04-28T07:14:19.322Z,11.40
2018-04-28T07:16:46.781Z,9.13
2018-04-28T07:19:14.257Z,9.33
2018-04-28T07:21:41.717Z,8.33
2018-04-28T07:24:09.168Z,8.17
2018-04-28T07:26:36.643Z,9.23
2018-04-28T07:29:04.123Z,7.70
2018-04-28T07:31:31.605Z,8.27
2018-04-28T07:33:59.064Z,9.77
2018-04-28T07:36:26.533Z,8.93
2018-04-28T07:38:53.989Z,8.67
2018-04-28T07:41:21.458Z,6.53
2018-04-28T07:43:48.913Z,7.83
2018-04-28T07:46:16.386Z,8.13
2018-04-28T07:48:43.847Z,9.97
2018-04-28T07:51:11.325Z,6.77
2018-04-28T07:53:38.790Z,4.67
2018-04-28T07:56:06.273Z,11.90
2018-04-28T07:58:33.729Z,7.60
2018-04-28T08:01:01.218Z,8.50
2018-04-28T08:03:28.673Z,7.13
2018-04-28T08:05:56.157Z,7.77
2018-04-28T08:08:23.626Z,11.20
2018-04-28T08:10:51.103Z,7.70
2018-04-28T08:13:18.567Z,8.87
2018-04-28T08:15:46.070Z,7.07
2018-04-28T08:18:13.526Z,5.47
2018-04-28T08:20:41.033Z,8.13
2018-04-28T08:23:08.533Z,6.63
2018-04-28T08:25:36.031Z,5.90
2018-04-28T08:28:03.481Z,5.30
2018-04-28T08:30:30.962Z,4.23
2018-04-28T08:32:58.450Z,7.03
2018-04-28T08:35:25.916Z,6.17
2018-04-28T08:37:53.365Z,6.83
2018-04-28T08:40:20.859Z,4.97
2018-04-28T08:42:48.320Z,5.27
2018-04-28T08:45:15.794Z,7.60
2018-04-28T08:47:43.273Z,3.03
2018-04-28T08:50:10.799Z,5.70
2018-04-28T08:52:38.282Z,4.63
2018-04-28T08:55:05.742Z,3.17
2018-04-28T08:57:33.220Z,5.60
2018-04-28T09:00:12.469Z,5.33
2018-04-28T09:02:39.957Z,4.40
2018-04-28T09:05:07.409Z,6.33
2018-04-28T09:07:38.746Z,5.10
2018-04-28T09:10:06.202Z,5.03
2018-04-28T09:12:33.670Z,4.10
2018-04-28T09:15:01.122Z,3.77
2018-04-28T09:17:28.598Z,4.23
2018-04-28T09:19:56.062Z,5.20
2018-04-28T09:22:23.538Z,3.73
2018-04-28T09:24:51.001Z,4.73
2018-04-28T09:27:18.482Z,5.90
2018-04-28T09:29:45.942Z,5.83
2018-04-28T09:32:13.416Z,6.93
2018-04-28T09:34:40.869Z,4.70
2018-04-28T09:37:08.349Z,4.70
2018-04-28T09:39:35.818Z,3.40
2018-04-28T09:42:03.394Z,5.50
2018-04-28T09:44:30.854Z,5.03
2018-04-28T09:46:58.325Z,5.07
2018-04-28T09:49:25.786Z,6.10
2018-04-28T09:51:53.265Z,4.30
2018-04-28T09:54:20.727Z,3.97
2018-04-28T09:56:48.190Z,3.67
2018-04-28T09:59:15.678Z,6.43
2018-04-28T10:01:43.125Z,2.57
2018-04-28T10:04:16.296Z,3.90
2018-04-28T10:06:43.745Z,3.63
2018-04-28T10:09:11.214Z,3.10
2018-04-28T10:11:38.665Z,3.60
2018-04-28T10:14:06.175Z,4.93
2018-04-28T10:16:33.638Z,5.53
2018-04-28T10:19:01.115Z,4.67
2018-04-28T10:21:28.579Z,3.77
2018-04-28T10:23:56.059Z,4.03
2018-04-28T10:26:23.519Z,3.63
2018-04-28T10:28:50.994Z,3.53
2018-04-28T10:31:20.218Z,8.20
2018-04-28T10:33:47.706Z,3.03
2018-04-28T10:36:15.167Z,4.17
2018-04-28T10:38:43.482Z,3.43
2018-04-28T10:41:10.941Z,6.73
2018-04-28T10:43:38.417Z,3.37
2018-04-28T10:46:05.874Z,3.47
2018-04-28T10:48:33.368Z,6.10
2018-04-28T10:51:00.836Z,4.63
2018-04-28T10:53:28.301Z,4.80
2018-04-28T10:55:55.758Z,5.10
2018-04-28T10:58:23.233Z,3.00
2018-04-28T11:00:50.693Z,5.77
2018-04-28T11:03:18.173Z,5.10
2018-04-28T11:05:45.633Z,5.17
2018-04-28T11:08:13.112Z,4.73
2018-04-28T11:10:40.576Z,3.20
2018-04-28T11:13:08.057Z,5.87
2018-04-28T11:18:12.677Z,4.27
2018-04-28T11:20:40.133Z,4.37
2018-04-28T11:23:07.617Z,4.17
2018-04-28T11:25:35.105Z,4.77
2018-04-28T11:28:02.558Z,4.37
2018-04-28T11:30:30.031Z,3.03
2018-04-28T11:32:57.539Z,3.63
2018-04-28T11:35:24.977Z,5.93
2018-04-28T11:37:52.429Z,3.93
2018-04-28T11:40:31.202Z,3.13
2018-04-28T11:42:58.666Z,3.57
2018-04-28T11:45:26.159Z,3.53
2018-04-28T11:47:53.659Z,2.87
2018-04-28T11:50:21.141Z,3.70
2018-04-28T11:52:48.593Z,3.00
2018-04-28T11:55:16.071Z,2.97
2018-04-28T11:57:43.579Z,4.37
2018-04-28T12:00:11.174Z,4.67
2018-04-28T12:02:39.387Z,3.87
2018-04-28T12:05:06.828Z,4.70
2018-04-28T12:07:34.288Z,3.80
2018-04-28T12:10:01.778Z,3.17
2018-04-28T12:12:29.277Z,5.80
2018-04-28T12:14:56.785Z,4.63
2018-04-28T12:17:24.346Z,4.43
2018-04-28T12:19:51.890Z,4.97
2018-04-28T12:22:19.370Z,2.50
2018-04-28T12:24:46.919Z,6.00
2018-04-28T12:27:14.375Z,4.27
2018-04-28T12:29:41.874Z,3.73
2018-04-28T12:32:09.370Z,3.30
2018-04-28T12:34:36.853Z,3.97
2018-04-28T12:37:04.309Z,4.80
2018-04-28T12:39:31.893Z,4.57
2018-04-28T12:41:59.519Z,11.13
2018-04-28T12:44:27.020Z,5.10
2018-04-28T12:46:54.521Z,7.10
2018-04-28T12:49:23.087Z,2.70
2018-04-28T12:51:50.602Z,4.90
2018-04-28T12:54:18.087Z,3.77
2018-04-28T12:56:45.598Z,3.13
2018-04-28T12:59:13.058Z,3.87
2018-04-28T13:01:40.540Z,4.57
2018-04-28T13:04:08.010Z,4.03
2018-04-28T13:06:35.490Z,4.20
2018-04-28T13:09:02.979Z,4.07
2018-04-28T13:11:30.464Z,4.10
2018-04-28T13:13:57.928Z,5.07
2018-04-28T13:16:25.408Z,2.73
2018-04-28T13:18:52.864Z,3.20
2018-04-28T13:21:20.338Z,3.17
2018-04-28T13:23:47.793Z,4.00
2018-04-28T13:26:15.273Z,4.43
2018-04-28T13:28:42.751Z,3.60
2018-04-28T13:31:10.225Z,2.63
2018-04-28T13:33:37.843Z,4.03
2018-04-28T13:36:05.329Z,2.70
2018-04-28T13:38:32.804Z,3.63
2018-04-28T13:41:00.309Z,6.30
2018-04-28T13:43:27.778Z,4.17
2018-04-28T13:45:55.290Z,3.30
2018-04-28T13:48:22.758Z,3.17
2018-04-28T13:50:50.231Z,4.17
2018-04-28T13:53:17.721Z,4.70
2018-04-28T13:55:45.194Z,5.00
2018-04-28T13:58:12.653Z,5.27
2018-04-28T14:00:40.176Z,3.67
2018-04-28T14:03:07.665Z,3.30
2018-04-28T14:05:35.133Z,4.40
2018-04-28T14:08:02.590Z,2.63
2018-04-28T14:10:30.061Z,3.77
2018-04-28T14:12:57.577Z,3.33
2018-04-28T14:15:25.045Z,2.57
2018-04-28T14:17:52.955Z,3.67
2018-04-28T14:20:20.416Z,4.03
2018-04-28T14:22:47.896Z,3.43
2018-04-28T14:25:15.355Z,3.00
2018-04-28T14:27:42.829Z,3.97
2018-04-28T14:30:10.285Z,2.13
2018-04-28T14:32:37.861Z,3.80
2018-04-28T14:35:05.345Z,3.77
2018-04-28T14:37:32.822Z,4.43
2018-04-28T14:40:00.326Z,3.43
2018-04-28T14:42:44.761Z,4.33
2018-04-28T14:45:12.229Z,4.00
2018-04-28T14:47:39.706Z,4.47
2018-04-28T14:50:07.197Z,3.27
2018-04-28T14:52:34.673Z,3.70
2018-04-28T14:55:02.121Z,9.10
2018-04-28T14:57:29.682Z,4.70
2018-04-28T14:59:57.277Z,3.27
2018-04-28T15:02:24.759Z,2.53
2018-04-28T15:04:52.211Z,3.37
2018-04-28T15:07:19.683Z,3.30
2018-04-28T15:09:47.231Z,3.10
2018-04-28T15:12:14.745Z,7.77
2018-04-28T15:14:42.197Z,3.47
2018-04-28T15:17:09.787Z,3.73
2018-04-28T15:19:37.309Z,2.40
2018-04-28T15:22:04.798Z,3.80
2018-04-28T15:24:32.253Z,2.73
2018-04-28T15:26:59.751Z,6.47
2018-04-28T15:29:27.213Z,2.93
2018-04-28T15:31:54.681Z,2.73
2018-04-28T15:34:22.137Z,4.73
2018-04-28T15:36:49.648Z,4.23
2018-04-28T15:39:17.106Z,3.67
2018-04-28T15:41:44.621Z,4.43
2018-04-28T15:44:12.092Z,4.03
2018-04-28T15:46:39.603Z,5.27
2018-04-28T15:49:07.047Z,3.53
2018-04-28T15:51:34.510Z,4.37
2018-04-28T15:54:02.012Z,4.33
2018-04-28T15:56:29.515Z,3.23
2018-04-28T15:58:56.996Z,3.67
2018-04-28T16:01:24.449Z,2.60
2018-04-28T16:03:51.941Z,3.73
2018-04-28T16:06:19.403Z,2.97
2018-04-28T16:08:46.869Z,3.30
2018-04-28T16:11:14.325Z,4.00
2018-04-28T16:13:41.809Z,4.97
2018-04-28T16:16:09.268Z,7.63
2018-04-28T16:18:36.752Z,2.93
2018-04-28T16:21:04.220Z,6.07
2018-04-28T16:23:31.700Z,5.30
2018-04-28T16:25:59.236Z,4.97
2018-04-28T16:28:26.691Z,6.17
2018-04-28T16:30:54.141Z,6.17
2018-04-28T16:33:21.613Z,6.33
2018-04-28T16:35:49.065Z,4.77
2018-04-28T16:38:16.532Z,5.87
2018-04-28T16:40:44.005Z,6.47
2018-04-28T16:43:11.513Z,17.50
2018-04-28T16:45:39.889Z,9.87
2018-04-28T16:48:07.366Z,4.87
2018-04-28T16:50:34.861Z,2.20
2018-04-28T16:53:02.330Z,3.17
2018-04-28T16:55:29.789Z,2.37
2018-04-28T16:57:57.313Z,4.17
2018-04-28T17:00:24.769Z,2.20
2018-04-28T17:02:52.237Z,6.83
2018-04-28T17:05:19.698Z,2.07
2018-04-28T17:07:47.173Z,2.60
2018-04-28T17:10:14.649Z,2.67
2018-04-28T17:12:42.122Z,4.57
2018-04-28T17:15:09.599Z,3.77
2018-04-28T17:17:48.933Z,1.73
2018-04-28T17:20:16.436Z,2.07
2018-04-28T17:22:43.909Z,2.67
2018-04-28T17:25:11.386Z,3.87
2018-04-28T17:27:38.835Z,2.30
2018-04-28T17:30:06.330Z,2.20
2018-04-28T17:32:33.781Z,2.37
2018-04-28T17:35:01.274Z,2.83
2018-04-28T17:37:28.733Z,2.73
2018-04-28T17:39:56.223Z,3.37
2018-04-28T17:42:27.886Z,2.27
2018-04-28T17:44:55.398Z,4.20
2018-04-28T17:47:22.850Z,4.07
2018-04-28T17:49:50.336Z,4.23
2018-04-28T17:52:17.792Z,7.07
2018-04-28T17:54:45.278Z,17.30
2018-04-28T17:57:12.743Z,9.87
2018-04-28T17:59:42.181Z,10.37
2018-04-28T18:02:10.549Z,10.73
2018-04-28T18:04:38.033Z,4.93
2018-04-28T18:07:05.505Z,2.57
2018-04-28T18:09:32.993Z,2.20
2018-04-28T18:12:00.456Z,2.80
2018-04-28T18:14:27.967Z,2.70
2018-04-28T18:16:55.730Z,4.70
2018-04-28T18:19:23.211Z,2.60
2018-04-28T18:21:50.713Z,1.57
2018-04-28T18:24:18.198Z,2.77
2018-04-28T18:26:45.661Z,2.67
2018-04-28T18:29:13.151Z,5.73
2018-04-28T18:31:40.606Z,4.07
2018-04-28T18:34:08.109Z,2.93
2018-04-28T18:36:35.565Z,2.90
2018-04-28T18:39:03.021Z,4.70
2018-04-28T18:41:31.502Z,2.97
2018-04-28T18:43:58.974Z,4.27
2018-04-28T18:46:26.569Z,2.07
2018-04-28T18:48:54.290Z,2.37
2018-04-28T18:51:21.779Z,2.63
2018-04-28T18:53:49.241Z,5.43
2018-04-28T18:56:16.757Z,4.47
2018-04-28T18:58:44.209Z,7.37
2018-04-28T19:01:11.745Z,8.40
2018-04-28T19:03:39.243Z,8.90
2018-04-28T19:06:06.721Z,11.43
2018-04-28T19:08:40.009Z,6.87
2018-04-28T19:11:07.496Z,5.43
2018-04-28T19:13:34.946Z,6.00
2018-04-28T19:16:02.431Z,5.13
2018-04-28T19:18:29.894Z,4.30
2018-04-28T19:20:57.423Z,3.27
2018-04-28T19:23:24.870Z,3.00
2018-04-28T19:25:52.341Z,3.27
2018-04-28T19:28:19.792Z,3.17
2018-04-28T19:30:57.430Z,3.73
2018-04-28T19:33:24.896Z,3.77
2018-04-28T19:35:52.414Z,3.57
2018-04-28T19:38:19.871Z,2.47
2018-04-28T19:40:47.357Z,3.60
2018-04-28T19:43:14.810Z,2.90
2018-04-28T19:45:42.314Z,2.03
2018-04-28T19:48:09.773Z,4.50
2018-04-28T19:50:37.277Z,4.50
2018-04-28T19:53:04.725Z,3.17
2018-04-28T19:55:32.211Z,3.30
2018-04-28T19:57:59.672Z,3.37
2018-04-28T20:00:27.177Z,2.70
2018-04-28T20:02:54.682Z,5.33
2018-04-28T20:05:22.170Z,3.43
2018-04-28T20:07:49.651Z,3.33
2018-04-28T20:10:17.842Z,5.07
2018-04-28T20:12:45.317Z,2.97
2018-04-28T20:15:12.774Z,3.13
2018-04-28T20:17:40.251Z,4.03
2018-04-28T20:20:07.696Z,3.10
2018-04-28T20:22:46.993Z,6.17
2018-04-28T20:25:22.039Z,3.30
2018-04-28T20:27:49.517Z,3.07
2018-04-28T20:30:16.998Z,3.40
2018-04-28T20:32:44.467Z,5.13
2018-04-28T20:35:11.930Z,3.73
2018-04-28T20:37:39.417Z,3.80
2018-04-28T20:40:06.874Z,3.53
2018-04-28T20:42:34.361Z,2.93
2018-04-28T20:45:01.824Z,3.70
2018-04-28T20:47:29.322Z,3.33
2018-04-28T20:49:56.782Z,3.83
2018-04-28T20:52:24.272Z,4.87
2018-04-28T20:54:51.817Z,5.20
2018-04-28T20:57:20.161Z,3.97
2018-04-28T20:59:47.672Z,3.07
2018-04-28T21:02:15.154Z,5.10
2018-04-28T21:04:42.613Z,3.07
2018-04-28T21:07:10.075Z,2.40
2018-04-28T21:09:37.554Z,5.27
2018-04-28T21:12:05.042Z,4.80
2018-04-28T21:14:32.517Z,3.17
2018-04-28T21:16:59.981Z,2.73
2018-04-28T21:19:28.277Z,4.87
2018-04-28T21:21:55.742Z,3.87
2018-04-28T21:24:23.213Z,4.57
2018-04-28T21:26:50.669Z,2.73
2018-04-28T21:29:18.182Z,3.90
2018-04-28T21:31:45.689Z,3.63
2018-04-28T21:34:13.173Z,3.27
2018-04-28T21:36:40.626Z,4.07
2018-04-28T21:39:08.101Z,3.60
2018-04-28T21:41:35.562Z,3.83
2018-04-28T21:44:03.041Z,5.43
2018-04-28T21:46:30.576Z,4.23
2018-04-28T21:48:57.998Z,5.40
2018-04-28T21:51:25.477Z,4.23
2018-04-28T21:53:52.949Z,3.47
2018-04-28T21:56:20.406Z,4.43
2018-04-28T21:58:47.898Z,4.57
2018-04-28T22:01:15.354Z,2.97
2018-04-28T22:03:42.805Z,4.20
2018-04-28T22:06:10.283Z,2.77
2018-04-28T22:08:37.738Z,6.20
2018-04-28T22:11:05.214Z,3.53
2018-04-28T22:13:32.671Z,5.83
2018-04-28T22:16:00.141Z,2.93
2018-04-28T22:18:27.614Z,5.23
2018-04-28T22:20:55.101Z,4.03
2018-04-28T22:23:22.610Z,2.90
2018-04-28T22:25:50.078Z,4.67
2018-04-28T22:28:17.529Z,4.20
2018-04-28T22:30:45.008Z,3.67
2018-04-28T22:33:12.469Z,3.27
2018-04-28T22:35:39.941Z,3.47
2018-04-28T22:38:07.393Z,4.47
2018-04-28T22:40:34.857Z,3.60
2018-04-28T22:43:02.377Z,5.27
2018-04-28T22:45:29.865Z,2.90
2018-04-28T22:47:57.321Z,5.83
2018-04-28T22:50:24.800Z,3.60
2018-04-28T22:52:52.262Z,2.83
2018-04-28T22:55:19.750Z,3.13
2018-04-28T22:57:47.201Z,7.57
2018-04-28T23:00:14.674Z,4.13
2018-04-28T23:02:42.138Z,4.90
2018-04-28T23:05:09.609Z,3.33
2018-04-28T23:07:37.071Z,4.33
2018-04-28T23:10:04.547Z,6.03
2018-04-28T23:12:32.014Z,3.93
2018-04-28T23:14:59.481Z,4.43
2018-04-28T23:17:26.933Z,4.07
2018-04-28T23:19:54.403Z,5.03
2018-04-28T23:22:21.851Z,6.00
2018-04-28T23:24:49.306Z,6.57
2018-04-28T23:27:16.946Z,4.50
2018-04-28T23:29:44.397Z,3.37
2018-04-28T23:32:11.870Z,3.50
2018-04-28T23:34:39.345Z,3.90
2018-04-28T23:37:06.820Z,4.40
2018-04-28T23:39:34.278Z,4.30
2018-04-28T23:42:01.756Z,4.87
2018-04-28T23:44:29.201Z,4.40
2018-04-28T23:46:56.674Z,5.90
2018-04-28T23:49:24.126Z,5.03
2018-04-28T23:51:51.603Z,4.20
2018-04-28T23:54:19.066Z,5.80
2018-04-28T23:56:46.571Z,4.87
2018-04-28T23:59:14.021Z,3.93
